Terminal Aerodrome Forecast
Issued by NWS Boston, MA

Home | Current Version | Previous Version | Text Only | Print | Product List | Glossary On
Versions: 1 2 3 4 5 6 7 8 9 10 11 12 13 14 15 16 17 18 19 20 21
000
FTUS41 KBOX 042333
TAFPVD
TAF
KPVD 042333Z 0500/0524 32004KT P6SM SCT250
     FM050900 00000KT P6SM VCSH OVC110
     FM051100 VRB03KT 3SM -SN OVC020
     FM051500 10004KT 4SM -RA OVC015
     FM051900 VRB03KT P6SM VCSH OVC010
     FM052200 32005KT P6SM BKN250=

USA.gov is the U.S. government's official web portal to all federal, state and local government web resources and services.